sensor_id;sensor_type;location;lat;lon;timestamp;P1;P2;P0
64631;PMS5003;58358;50.936;0.246;2024-02-26T00:02:01;3;3;
64631;PMS5003;58358;50.936;0.246;2024-02-26T00:04:27;3;3;
64631;PMS5003;58358;50.936;0.246;2024-02-26T00:06:53;2;2;
64631;PMS5003;58358;50.936;0.246;2024-02-26T00:09:18;3;3;
64631;PMS5003;58358;50.936;0.246;2024-02-26T00:11:44;4;3;
64631;PMS5003;58358;50.936;0.246;2024-02-26T00:14:10;2;2;
64631;PMS5003;58358;50.936;0.246;2024-02-26T00:16:36;3;3;
64631;PMS5003;58358;50.936;0.246;2024-02-26T00:19:01;8;6;
64631;PMS5003;58358;50.936;0.246;2024-02-26T00:21:27;5;4;
64631;PMS5003;58358;50.936;0.246;2024-02-26T00:23:53;27;20;
64631;PMS5003;58358;50.936;0.246;2024-02-26T00:26:18;4;4;
64631;PMS5003;58358;50.936;0.246;2024-02-26T00:28:44;6;6;
64631;PMS5003;58358;50.936;0.246;2024-02-26T00:31:10;8;8;
64631;PMS5003;58358;50.936;0.246;2024-02-26T00:33:36;4;4;
64631;PMS5003;58358;50.936;0.246;2024-02-26T00:36:02;10;9;
64631;PMS5003;58358;50.936;0.246;2024-02-26T00:38:27;7;6;
64631;PMS5003;58358;50.936;0.246;2024-02-26T00:40:53;9;9;
64631;PMS5003;58358;50.936;0.246;2024-02-26T00:43:19;8;8;
64631;PMS5003;58358;50.936;0.246;2024-02-26T00:45:44;5;5;
64631;PMS5003;58358;50.936;0.246;2024-02-26T00:48:10;6;6;
64631;PMS5003;58358;50.936;0.246;2024-02-26T00:50:36;9;9;
64631;PMS5003;58358;50.936;0.246;2024-02-26T00:53:01;8;8;
64631;PMS5003;58358;50.936;0.246;2024-02-26T00:55:27;8;8;
64631;PMS5003;58358;50.936;0.246;2024-02-26T00:57:53;9;9;
64631;PMS5003;58358;50.936;0.246;2024-02-26T01:00:19;4;4;
64631;PMS5003;58358;50.936;0.246;2024-02-26T01:02:44;10;6;
64631;PMS5003;58358;50.936;0.246;2024-02-26T01:05:10;9;9;
64631;PMS5003;58358;50.936;0.246;2024-02-26T01:07:36;10;10;
64631;PMS5003;58358;50.936;0.246;2024-02-26T01:10:01;11;11;
64631;PMS5003;58358;50.936;0.246;2024-02-26T01:12:27;8;8;
64631;PMS5003;58358;50.936;0.246;2024-02-26T01:14:53;12;10;
64631;PMS5003;58358;50.936;0.246;2024-02-26T01:17:19;11;10;
64631;PMS5003;58358;50.936;0.246;2024-02-26T01:19:45;14;12;
64631;PMS5003;58358;50.936;0.246;2024-02-26T01:22:10;12;11;
64631;PMS5003;58358;50.936;0.246;2024-02-26T01:24:36;11;11;
64631;PMS5003;58358;50.936;0.246;2024-02-26T01:27:02;15;10;
64631;PMS5003;58358;50.936;0.246;2024-02-26T01:29:27;12;12;
64631;PMS5003;58358;50.936;0.246;2024-02-26T01:31:53;11;11;
64631;PMS5003;58358;50.936;0.246;2024-02-26T01:34:18;13;13;
64631;PMS5003;58358;50.936;0.246;2024-02-26T01:36:44;13;11;
64631;PMS5003;58358;50.936;0.246;2024-02-26T01:39:09;13;13;
64631;PMS5003;58358;50.936;0.246;2024-02-26T01:41:36;14;14;
64631;PMS5003;58358;50.936;0.246;2024-02-26T01:44:01;15;15;
64631;PMS5003;58358;50.936;0.246;2024-02-26T01:46:26;13;13;
64631;PMS5003;58358;50.936;0.246;2024-02-26T01:48:52;12;10;
64631;PMS5003;58358;50.936;0.246;2024-02-26T01:51:17;12;11;
64631;PMS5003;58358;50.936;0.246;2024-02-26T01:53:43;11;10;
64631;PMS5003;58358;50.936;0.246;2024-02-26T01:56:09;13;13;
64631;PMS5003;58358;50.936;0.246;2024-02-26T01:58:34;9;9;
64631;PMS5003;58358;50.936;0.246;2024-02-26T02:01:00;13;11;
64631;PMS5003;58358;50.936;0.246;2024-02-26T02:03:26;8;6;
64631;PMS5003;58358;50.936;0.246;2024-02-26T02:05:51;6;6;
64631;PMS5003;58358;50.936;0.246;2024-02-26T02:08:17;11;9;
64631;PMS5003;58358;50.936;0.246;2024-02-26T02:10:43;13;10;
64631;PMS5003;58358;50.936;0.246;2024-02-26T02:13:08;10;9;
64631;PMS5003;58358;50.936;0.246;2024-02-26T02:15:34;12;11;
64631;PMS5003;58358;50.936;0.246;2024-02-26T02:18:00;11;9;
64631;PMS5003;58358;50.936;0.246;2024-02-26T02:20:26;10;10;
64631;PMS5003;58358;50.936;0.246;2024-02-26T02:22:51;11;10;
64631;PMS5003;58358;50.936;0.246;2024-02-26T02:25:16;10;10;
64631;PMS5003;58358;50.936;0.246;2024-02-26T02:27:42;9;9;
64631;PMS5003;58358;50.936;0.246;2024-02-26T02:30:08;13;11;
64631;PMS5003;58358;50.936;0.246;2024-02-26T02:32:33;16;9;
64631;PMS5003;58358;50.936;0.246;2024-02-26T02:34:58;11;8;
64631;PMS5003;58358;50.936;0.246;2024-02-26T02:37:24;12;11;
64631;PMS5003;58358;50.936;0.246;2024-02-26T02:39:49;12;12;
64631;PMS5003;58358;50.936;0.246;2024-02-26T02:42:15;11;8;
64631;PMS5003;58358;50.936;0.246;2024-02-26T02:44:40;11;10;
64631;PMS5003;58358;50.936;0.246;2024-02-26T02:47:06;11;11;
64631;PMS5003;58358;50.936;0.246;2024-02-26T02:49:31;15;15;
64631;PMS5003;58358;50.936;0.246;2024-02-26T02:51:57;12;11;
64631;PMS5003;58358;50.936;0.246;2024-02-26T02:54:23;13;11;
64631;PMS5003;58358;50.936;0.246;2024-02-26T02:56:48;8;8;
64631;PMS5003;58358;50.936;0.246;2024-02-26T02:59:14;16;10;
64631;PMS5003;58358;50.936;0.246;2024-02-26T03:01:40;13;12;
64631;PMS5003;58358;50.936;0.246;2024-02-26T03:04:05;10;10;
64631;PMS5003;58358;50.936;0.246;2024-02-26T03:06:31;11;10;
64631;PMS5003;58358;50.936;0.246;2024-02-26T03:08:57;14;11;
64631;PMS5003;58358;50.936;0.246;2024-02-26T03:11:23;11;11;
64631;PMS5003;58358;50.936;0.246;2024-02-26T03:13:49;14;14;
64631;PMS5003;58358;50.936;0.246;2024-02-26T03:16:14;18;13;
64631;PMS5003;58358;50.936;0.246;2024-02-26T03:18:39;16;14;
64631;PMS5003;58358;50.936;0.246;2024-02-26T03:21:05;16;13;
64631;PMS5003;58358;50.936;0.246;2024-02-26T03:23:30;21;17;
64631;PMS5003;58358;50.936;0.246;2024-02-26T03:25:56;17;17;
64631;PMS5003;58358;50.936;0.246;2024-02-26T03:28:21;17;16;
64631;PMS5003;58358;50.936;0.246;2024-02-26T03:30:46;17;17;
64631;PMS5003;58358;50.936;0.246;2024-02-26T03:33:12;21;19;
64631;PMS5003;58358;50.936;0.246;2024-02-26T03:35:38;17;16;
64631;PMS5003;58358;50.936;0.246;2024-02-26T03:38:03;19;13;
64631;PMS5003;58358;50.936;0.246;2024-02-26T03:40:28;25;21;
64631;PMS5003;58358;50.936;0.246;2024-02-26T03:42:53;19;19;
64631;PMS5003;58358;50.936;0.246;2024-02-26T03:45:19;20;20;
64631;PMS5003;58358;50.936;0.246;2024-02-26T03:47:45;19;18;
64631;PMS5003;58358;50.936;0.246;2024-02-26T03:50:11;21;19;
64631;PMS5003;58358;50.936;0.246;2024-02-26T03:52:36;17;16;
64631;PMS5003;58358;50.936;0.246;2024-02-26T03:55:02;20;19;
64631;PMS5003;58358;50.936;0.246;2024-02-26T03:57:28;14;13;
64631;PMS5003;58358;50.936;0.246;2024-02-26T03:59:54;19;13;
64631;PMS5003;58358;50.936;0.246;2024-02-26T04:02:19;13;13;
64631;PMS5003;58358;50.936;0.246;2024-02-26T04:04:46;16;16;
64631;PMS5003;58358;50.936;0.246;2024-02-26T04:07:11;16;15;
64631;PMS5003;58358;50.936;0.246;2024-02-26T04:09:37;15;15;
64631;PMS5003;58358;50.936;0.246;2024-02-26T04:12:02;16;16;
64631;PMS5003;58358;50.936;0.246;2024-02-26T04:14:28;20;17;
64631;PMS5003;58358;50.936;0.246;2024-02-26T04:16:53;23;21;
64631;PMS5003;58358;50.936;0.246;2024-02-26T04:19:18;18;16;
64631;PMS5003;58358;50.936;0.246;2024-02-26T04:21:44;24;19;
64631;PMS5003;58358;50.936;0.246;2024-02-26T04:24:09;28;21;
64631;PMS5003;58358;50.936;0.246;2024-02-26T04:26:34;25;19;
64631;PMS5003;58358;50.936;0.246;2024-02-26T04:29:00;21;20;
64631;PMS5003;58358;50.936;0.246;2024-02-26T04:31:26;25;20;
64631;PMS5003;58358;50.936;0.246;2024-02-26T04:36:17;22;20;
64631;PMS5003;58358;50.936;0.246;2024-02-26T04:38:42;25;23;
64631;PMS5003;58358;50.936;0.246;2024-02-26T04:41:08;24;24;
64631;PMS5003;58358;50.936;0.246;2024-02-26T04:43:34;24;22;
64631;PMS5003;58358;50.936;0.246;2024-02-26T04:45:59;26;20;
64631;PMS5003;58358;50.936;0.246;2024-02-26T04:48:27;21;19;
64631;PMS5003;58358;50.936;0.246;2024-02-26T04:50:50;23;20;
64631;PMS5003;58358;50.936;0.246;2024-02-26T04:53:16;24;21;
64631;PMS5003;58358;50.936;0.246;2024-02-26T04:55:41;24;20;
64631;PMS5003;58358;50.936;0.246;2024-02-26T04:58:07;23;21;
64631;PMS5003;58358;50.936;0.246;2024-02-26T05:00:32;20;19;
64631;PMS5003;58358;50.936;0.246;2024-02-26T05:02:58;23;19;
64631;PMS5003;58358;50.936;0.246;2024-02-26T05:05:23;31;25;
64631;PMS5003;58358;50.936;0.246;2024-02-26T05:07:49;24;23;
64631;PMS5003;58358;50.936;0.246;2024-02-26T05:10:15;26;23;
64631;PMS5003;58358;50.936;0.246;2024-02-26T05:12:40;32;26;
64631;PMS5003;58358;50.936;0.246;2024-02-26T05:15:06;29;25;
64631;PMS5003;58358;50.936;0.246;2024-02-26T05:17:31;25;24;
64631;PMS5003;58358;50.936;0.246;2024-02-26T05:19:56;29;25;
64631;PMS5003;58358;50.936;0.246;2024-02-26T05:22:22;24;20;
64631;PMS5003;58358;50.936;0.246;2024-02-26T05:24:47;23;18;
64631;PMS5003;58358;50.936;0.246;2024-02-26T05:27:12;26;26;
64631;PMS5003;58358;50.936;0.246;2024-02-26T05:29:38;26;24;
64631;PMS5003;58358;50.936;0.246;2024-02-26T05:32:04;25;20;
64631;PMS5003;58358;50.936;0.246;2024-02-26T05:34:29;25;24;
64631;PMS5003;58358;50.936;0.246;2024-02-26T05:36:55;24;23;
64631;PMS5003;58358;50.936;0.246;2024-02-26T05:39:20;26;18;
64631;PMS5003;58358;50.936;0.246;2024-02-26T05:41:45;26;24;
64631;PMS5003;58358;50.936;0.246;2024-02-26T05:44:11;24;16;
64631;PMS5003;58358;50.936;0.246;2024-02-26T05:46:37;18;17;
64631;PMS5003;58358;50.936;0.246;2024-02-26T05:49:02;23;19;
64631;PMS5003;58358;50.936;0.246;2024-02-26T05:51:27;20;17;
64631;PMS5003;58358;50.936;0.246;2024-02-26T05:53:53;18;17;
64631;PMS5003;58358;50.936;0.246;2024-02-26T05:56:19;20;18;
64631;PMS5003;58358;50.936;0.246;2024-02-26T05:58:44;18;18;
64631;PMS5003;58358;50.936;0.246;2024-02-26T06:01:10;20;18;
64631;PMS5003;58358;50.936;0.246;2024-02-26T06:03:36;18;18;
64631;PMS5003;58358;50.936;0.246;2024-02-26T06:06:01;15;15;
64631;PMS5003;58358;50.936;0.246;2024-02-26T06:08:27;19;18;
64631;PMS5003;58358;50.936;0.246;2024-02-26T06:10:53;15;11;
64631;PMS5003;58358;50.936;0.246;2024-02-26T06:13:18;12;12;
64631;PMS5003;58358;50.936;0.246;2024-02-26T06:15:43;16;15;
64631;PMS5003;58358;50.936;0.246;2024-02-26T06:18:09;16;13;
64631;PMS5003;58358;50.936;0.246;2024-02-26T06:20:35;17;16;
64631;PMS5003;58358;50.936;0.246;2024-02-26T06:23:00;14;12;
64631;PMS5003;58358;50.936;0.246;2024-02-26T06:25:26;13;13;
64631;PMS5003;58358;50.936;0.246;2024-02-26T06:27:51;16;15;
64631;PMS5003;58358;50.936;0.246;2024-02-26T06:30:16;17;13;
64631;PMS5003;58358;50.936;0.246;2024-02-26T06:32:42;13;11;
64631;PMS5003;58358;50.936;0.246;2024-02-26T06:35:07;13;12;
64631;PMS5003;58358;50.936;0.246;2024-02-26T06:37:33;13;13;
64631;PMS5003;58358;50.936;0.246;2024-02-26T06:39:59;14;14;
64631;PMS5003;58358;50.936;0.246;2024-02-26T06:42:24;11;11;
64631;PMS5003;58358;50.936;0.246;2024-02-26T06:44:50;10;10;
64631;PMS5003;58358;50.936;0.246;2024-02-26T06:47:16;10;9;
64631;PMS5003;58358;50.936;0.246;2024-02-26T06:49:42;8;8;
64631;PMS5003;58358;50.936;0.246;2024-02-26T06:52:07;13;10;
64631;PMS5003;58358;50.936;0.246;2024-02-26T06:54:33;10;10;
64631;PMS5003;58358;50.936;0.246;2024-02-26T06:56:59;9;8;
64631;PMS5003;58358;50.936;0.246;2024-02-26T06:59:24;8;8;
64631;PMS5003;58358;50.936;0.246;2024-02-26T07:01:50;11;9;
64631;PMS5003;58358;50.936;0.246;2024-02-26T07:04:16;15;9;
64631;PMS5003;58358;50.936;0.246;2024-02-26T07:06:41;9;9;
64631;PMS5003;58358;50.936;0.246;2024-02-26T07:09:07;12;11;
64631;PMS5003;58358;50.936;0.246;2024-02-26T07:11:32;8;8;
64631;PMS5003;58358;50.936;0.246;2024-02-26T07:13:58;8;6;
64631;PMS5003;58358;50.936;0.246;2024-02-26T07:16:24;8;8;
64631;PMS5003;58358;50.936;0.246;2024-02-26T07:18:50;5;5;
64631;PMS5003;58358;50.936;0.246;2024-02-26T07:21:15;9;8;
64631;PMS5003;58358;50.936;0.246;2024-02-26T07:23:41;8;5;
64631;PMS5003;58358;50.936;0.246;2024-02-26T07:26:07;9;9;
64631;PMS5003;58358;50.936;0.246;2024-02-26T07:28:32;10;8;
64631;PMS5003;58358;50.936;0.246;2024-02-26T07:30:58;6;6;
64631;PMS5003;58358;50.936;0.246;2024-02-26T07:33:24;15;11;
64631;PMS5003;58358;50.936;0.246;2024-02-26T07:35:50;6;6;
64631;PMS5003;58358;50.936;0.246;2024-02-26T07:38:15;5;4;
64631;PMS5003;58358;50.936;0.246;2024-02-26T07:40:41;8;5;
64631;PMS5003;58358;50.936;0.246;2024-02-26T07:43:07;8;8;
64631;PMS5003;58358;50.936;0.246;2024-02-26T07:45:32;5;5;
64631;PMS5003;58358;50.936;0.246;2024-02-26T07:47:58;6;6;
64631;PMS5003;58358;50.936;0.246;2024-02-26T07:50:24;5;5;
64631;PMS5003;58358;50.936;0.246;2024-02-26T07:52:50;4;4;
64631;PMS5003;58358;50.936;0.246;2024-02-26T07:55:16;5;5;
64631;PMS5003;58358;50.936;0.246;2024-02-26T07:57:41;9;6;
64631;PMS5003;58358;50.936;0.246;2024-02-26T08:00:08;6;6;
64631;PMS5003;58358;50.936;0.246;2024-02-26T08:02:33;5;5;
64631;PMS5003;58358;50.936;0.246;2024-02-26T08:04:58;7;4;
64631;PMS5003;58358;50.936;0.246;2024-02-26T08:07:24;6;6;
64631;PMS5003;58358;50.936;0.246;2024-02-26T08:09:50;5;5;
64631;PMS5003;58358;50.936;0.246;2024-02-26T08:12:16;6;5;
64631;PMS5003;58358;50.936;0.246;2024-02-26T08:14:42;3;3;
64631;PMS5003;58358;50.936;0.246;2024-02-26T08:17:11;4;4;
64631;PMS5003;58358;50.936;0.246;2024-02-26T08:19:33;3;3;
64631;PMS5003;58358;50.936;0.246;2024-02-26T08:21:59;5;5;
64631;PMS5003;58358;50.936;0.246;2024-02-26T08:24:25;4;3;
64631;PMS5003;58358;50.936;0.246;2024-02-26T08:26:50;5;4;
64631;PMS5003;58358;50.936;0.246;2024-02-26T08:29:16;3;3;
64631;PMS5003;58358;50.936;0.246;2024-02-26T08:31:42;4;4;
64631;PMS5003;58358;50.936;0.246;2024-02-26T08:34:07;4;3;
64631;PMS5003;58358;50.936;0.246;2024-02-26T08:36:33;5;4;
64631;PMS5003;58358;50.936;0.246;2024-02-26T08:38:59;3;3;
64631;PMS5003;58358;50.936;0.246;2024-02-26T08:41:25;4;3;
64631;PMS5003;58358;50.936;0.246;2024-02-26T08:43:51;6;3;
64631;PMS5003;58358;50.936;0.246;2024-02-26T08:46:16;4;3;
64631;PMS5003;58358;50.936;0.246;2024-02-26T08:48:42;5;5;
64631;PMS5003;58358;50.936;0.246;2024-02-26T08:51:08;6;5;
64631;PMS5003;58358;50.936;0.246;2024-02-26T08:53:34;6;4;
64631;PMS5003;58358;50.936;0.246;2024-02-26T08:56:00;6;4;
64631;PMS5003;58358;50.936;0.246;2024-02-26T08:58:26;6;5;
64631;PMS5003;58358;50.936;0.246;2024-02-26T09:00:51;3;3;
64631;PMS5003;58358;50.936;0.246;2024-02-26T09:03:17;3;3;
64631;PMS5003;58358;50.936;0.246;2024-02-26T09:05:43;3;2;
64631;PMS5003;58358;50.936;0.246;2024-02-26T09:08:09;3;3;
64631;PMS5003;58358;50.936;0.246;2024-02-26T09:10:35;4;4;
64631;PMS5003;58358;50.936;0.246;2024-02-26T09:13:00;3;3;
64631;PMS5003;58358;50.936;0.246;2024-02-26T09:15:26;4;4;
64631;PMS5003;58358;50.936;0.246;2024-02-26T09:17:52;5;5;
64631;PMS5003;58358;50.936;0.246;2024-02-26T09:20:18;4;4;
64631;PMS5003;58358;50.936;0.246;2024-02-26T09:22:43;3;3;
64631;PMS5003;58358;50.936;0.246;2024-02-26T09:25:09;4;4;
64631;PMS5003;58358;50.936;0.246;2024-02-26T09:27:35;5;4;
64631;PMS5003;58358;50.936;0.246;2024-02-26T09:30:01;5;4;
64631;PMS5003;58358;50.936;0.246;2024-02-26T09:32:27;3;3;
64631;PMS5003;58358;50.936;0.246;2024-02-26T09:34:53;4;3;
64631;PMS5003;58358;50.936;0.246;2024-02-26T09:37:18;3;3;
64631;PMS5003;58358;50.936;0.246;2024-02-26T09:39:44;3;3;
64631;PMS5003;58358;50.936;0.246;2024-02-26T09:42:10;3;3;
64631;PMS5003;58358;50.936;0.246;2024-02-26T09:44:36;5;5;
64631;PMS5003;58358;50.936;0.246;2024-02-26T09:47:02;4;4;
64631;PMS5003;58358;50.936;0.246;2024-02-26T09:49:27;4;4;
64631;PMS5003;58358;50.936;0.246;2024-02-26T09:51:53;3;3;
64631;PMS5003;58358;50.936;0.246;2024-02-26T09:54:19;5;3;
64631;PMS5003;58358;50.936;0.246;2024-02-26T09:56:44;4;4;
64631;PMS5003;58358;50.936;0.246;2024-02-26T09:59:12;3;3;
64631;PMS5003;58358;50.936;0.246;2024-02-26T10:01:36;5;3;
64631;PMS5003;58358;50.936;0.246;2024-02-26T10:04:02;3;3;
64631;PMS5003;58358;50.936;0.246;2024-02-26T10:06:28;4;4;
64631;PMS5003;58358;50.936;0.246;2024-02-26T10:08:54;4;4;
64631;PMS5003;58358;50.936;0.246;2024-02-26T10:11:19;3;3;
64631;PMS5003;58358;50.936;0.246;2024-02-26T10:13:45;4;4;
64631;PMS5003;58358;50.936;0.246;2024-02-26T10:16:11;4;3;
64631;PMS5003;58358;50.936;0.246;2024-02-26T10:18:45;4;4;
64631;PMS5003;58358;50.936;0.246;2024-02-26T10:21:02;2;2;
64631;PMS5003;58358;50.936;0.246;2024-02-26T10:23:29;3;3;
64631;PMS5003;58358;50.936;0.246;2024-02-26T10:25:54;4;2;
64631;PMS5003;58358;50.936;0.246;2024-02-26T10:28:19;5;3;
64631;PMS5003;58358;50.936;0.246;2024-02-26T10:30:45;4;4;
64631;PMS5003;58358;50.936;0.246;2024-02-26T10:33:11;5;5;
64631;PMS5003;58358;50.936;0.246;2024-02-26T10:35:37;6;5;
64631;PMS5003;58358;50.936;0.246;2024-02-26T10:38:03;3;3;
64631;PMS5003;58358;50.936;0.246;2024-02-26T10:40:28;2;2;
64631;PMS5003;58358;50.936;0.246;2024-02-26T10:42:54;4;3;
64631;PMS5003;58358;50.936;0.246;2024-02-26T10:45:20;5;4;
64631;PMS5003;58358;50.936;0.246;2024-02-26T10:47:46;2;2;
64631;PMS5003;58358;50.936;0.246;2024-02-26T10:50:12;4;3;
64631;PMS5003;58358;50.936;0.246;2024-02-26T10:52:37;3;3;
64631;PMS5003;58358;50.936;0.246;2024-02-26T10:55:04;3;3;
64631;PMS5003;58358;50.936;0.246;2024-02-26T10:57:29;4;4;
64631;PMS5003;58358;50.936;0.246;2024-02-26T10:59:55;3;3;
64631;PMS5003;58358;50.936;0.246;2024-02-26T11:02:20;6;4;
64631;PMS5003;58358;50.936;0.246;2024-02-26T11:04:46;3;3;
64631;PMS5003;58358;50.936;0.246;2024-02-26T11:07:12;4;3;
64631;PMS5003;58358;50.936;0.246;2024-02-26T11:09:38;2;2;
64631;PMS5003;58358;50.936;0.246;2024-02-26T11:12:04;2;2;
64631;PMS5003;58358;50.936;0.246;2024-02-26T11:14:29;5;3;
64631;PMS5003;58358;50.936;0.246;2024-02-26T11:16:56;4;4;
64631;PMS5003;58358;50.936;0.246;2024-02-26T11:19:21;2;2;
64631;PMS5003;58358;50.936;0.246;2024-02-26T11:21:47;2;2;
64631;PMS5003;58358;50.936;0.246;2024-02-26T11:24:13;4;3;
64631;PMS5003;58358;50.936;0.246;2024-02-26T11:26:39;2;2;
64631;PMS5003;58358;50.936;0.246;2024-02-26T11:29:04;3;2;
64631;PMS5003;58358;50.936;0.246;2024-02-26T11:31:30;3;3;
64631;PMS5003;58358;50.936;0.246;2024-02-26T11:33:56;2;2;
64631;PMS5003;58358;50.936;0.246;2024-02-26T11:36:21;3;3;
64631;PMS5003;58358;50.936;0.246;2024-02-26T11:38:47;4;4;
64631;PMS5003;58358;50.936;0.246;2024-02-26T11:41:12;5;5;
64631;PMS5003;58358;50.936;0.246;2024-02-26T11:46:04;2;2;
64631;PMS5003;58358;50.936;0.246;2024-02-26T11:48:30;2;2;
64631;PMS5003;58358;50.936;0.246;2024-02-26T11:50:56;5;4;
64631;PMS5003;58358;50.936;0.246;2024-02-26T11:53:22;1;1;
64631;PMS5003;58358;50.936;0.246;2024-02-26T11:55:47;3;1;
64631;PMS5003;58358;50.936;0.246;2024-02-26T11:58:13;2;2;
64631;PMS5003;58358;50.936;0.246;2024-02-26T12:00:39;3;3;
64631;PMS5003;58358;50.936;0.246;2024-02-26T12:03:04;2;2;
64631;PMS5003;58358;50.936;0.246;2024-02-26T12:05:31;2;2;
64631;PMS5003;58358;50.936;0.246;2024-02-26T12:07:59;1;1;
64631;PMS5003;58358;50.936;0.246;2024-02-26T12:10:24;2;2;
64631;PMS5003;58358;50.936;0.246;2024-02-26T12:12:48;2;2;
64631;PMS5003;58358;50.936;0.246;2024-02-26T12:15:14;1;1;
64631;PMS5003;58358;50.936;0.246;2024-02-26T12:17:39;2;2;
64631;PMS5003;58358;50.936;0.246;2024-02-26T12:20:09;1;1;
64631;PMS5003;58358;50.936;0.246;2024-02-26T12:22:31;2;2;
64631;PMS5003;58358;50.936;0.246;2024-02-26T12:24:58;3;3;
64631;PMS5003;58358;50.936;0.246;2024-02-26T12:27:22;2;1;
64631;PMS5003;58358;50.936;0.246;2024-02-26T12:29:48;2;2;
64631;PMS5003;58358;50.936;0.246;2024-02-26T12:32:14;2;2;
64631;PMS5003;58358;50.936;0.246;2024-02-26T12:34:40;1;1;
64631;PMS5003;58358;50.936;0.246;2024-02-26T12:37:05;2;2;
64631;PMS5003;58358;50.936;0.246;2024-02-26T12:39:31;1;1;
64631;PMS5003;58358;50.936;0.246;2024-02-26T12:41:57;2;2;
64631;PMS5003;58358;50.936;0.246;2024-02-26T12:44:24;2;2;
64631;PMS5003;58358;50.936;0.246;2024-02-26T12:46:49;2;2;
64631;PMS5003;58358;50.936;0.246;2024-02-26T12:49:15;1;1;
64631;PMS5003;58358;50.936;0.246;2024-02-26T12:51:40;1;1;
64631;PMS5003;58358;50.936;0.246;2024-02-26T12:54:06;1;1;
64631;PMS5003;58358;50.936;0.246;2024-02-26T12:56:31;3;3;
64631;PMS5003;58358;50.936;0.246;2024-02-26T12:58:58;1;1;
64631;PMS5003;58358;50.936;0.246;2024-02-26T13:01:23;1;1;
64631;PMS5003;58358;50.936;0.246;2024-02-26T13:03:49;2;2;
64631;PMS5003;58358;50.936;0.246;2024-02-26T13:06:14;6;6;
64631;PMS5003;58358;50.936;0.246;2024-02-26T13:08:40;2;2;
64631;PMS5003;58358;50.936;0.246;2024-02-26T13:11:06;2;2;
64631;PMS5003;58358;50.936;0.246;2024-02-26T13:13:31;1;1;
64631;PMS5003;58358;50.936;0.246;2024-02-26T13:16:03;4;4;
64631;PMS5003;58358;50.936;0.246;2024-02-26T13:18:27;1;1;
64631;PMS5003;58358;50.936;0.246;2024-02-26T13:20:49;3;3;
64631;PMS5003;58358;50.936;0.246;2024-02-26T13:23:14;1;1;
64631;PMS5003;58358;50.936;0.246;2024-02-26T13:25:40;2;2;
64631;PMS5003;58358;50.936;0.246;2024-02-26T13:28:06;2;1;
64631;PMS5003;58358;50.936;0.246;2024-02-26T13:30:31;2;1;
64631;PMS5003;58358;50.936;0.246;2024-02-26T13:32:57;2;2;
64631;PMS5003;58358;50.936;0.246;2024-02-26T13:35:23;2;0;
64631;PMS5003;58358;50.936;0.246;2024-02-26T13:37:48;1;1;
64631;PMS5003;58358;50.936;0.246;2024-02-26T13:40:14;1;1;
64631;PMS5003;58358;50.936;0.246;2024-02-26T13:42:40;2;2;
64631;PMS5003;58358;50.936;0.246;2024-02-26T13:45:06;2;2;
64631;PMS5003;58358;50.936;0.246;2024-02-26T13:47:32;2;1;
64631;PMS5003;58358;50.936;0.246;2024-02-26T13:49:57;1;1;
64631;PMS5003;58358;50.936;0.246;2024-02-26T13:52:23;4;2;
64631;PMS5003;58358;50.936;0.246;2024-02-26T13:54:49;1;1;
64631;PMS5003;58358;50.936;0.246;2024-02-26T13:57:16;4;2;
64631;PMS5003;58358;50.936;0.246;2024-02-26T13:59:40;3;2;
64631;PMS5003;58358;50.936;0.246;2024-02-26T14:02:06;3;3;
64631;PMS5003;58358;50.936;0.246;2024-02-26T14:06:58;1;1;
64631;PMS5003;58358;50.936;0.246;2024-02-26T14:09:23;2;2;
64631;PMS5003;58358;50.936;0.246;2024-02-26T14:11:49;2;2;
64631;PMS5003;58358;50.936;0.246;2024-02-26T14:14:15;1;1;
64631;PMS5003;58358;50.936;0.246;2024-02-26T14:16:40;3;3;
64631;PMS5003;58358;50.936;0.246;2024-02-26T14:19:06;2;2;
64631;PMS5003;58358;50.936;0.246;2024-02-26T14:21:32;1;1;
64631;PMS5003;58358;50.936;0.246;2024-02-26T14:23:58;3;2;
64631;PMS5003;58358;50.936;0.246;2024-02-26T14:26:24;5;2;
64631;PMS5003;58358;50.936;0.246;2024-02-26T14:28:49;4;4;
64631;PMS5003;58358;50.936;0.246;2024-02-26T14:31:17;2;2;
64631;PMS5003;58358;50.936;0.246;2024-02-26T14:33:41;4;4;
64631;PMS5003;58358;50.936;0.246;2024-02-26T14:36:07;3;2;
64631;PMS5003;58358;50.936;0.246;2024-02-26T14:38:32;1;1;
64631;PMS5003;58358;50.936;0.246;2024-02-26T14:40:58;4;2;
64631;PMS5003;58358;50.936;0.246;2024-02-26T14:43:24;2;2;
64631;PMS5003;58358;50.936;0.246;2024-02-26T14:45:50;2;2;
64631;PMS5003;58358;50.936;0.246;2024-02-26T14:48:15;3;3;
64631;PMS5003;58358;50.936;0.246;2024-02-26T14:50:41;1;1;
64631;PMS5003;58358;50.936;0.246;2024-02-26T14:53:07;2;2;
64631;PMS5003;58358;50.936;0.246;2024-02-26T14:55:33;1;1;
64631;PMS5003;58358;50.936;0.246;2024-02-26T14:57:58;1;1;
64631;PMS5003;58358;50.936;0.246;2024-02-26T15:00:24;1;1;
64631;PMS5003;58358;50.936;0.246;2024-02-26T15:02:50;2;2;
64631;PMS5003;58358;50.936;0.246;2024-02-26T15:05:15;3;3;
64631;PMS5003;58358;50.936;0.246;2024-02-26T15:07:41;1;1;
64631;PMS5003;58358;50.936;0.246;2024-02-26T15:10:07;1;1;
64631;PMS5003;58358;50.936;0.246;2024-02-26T15:12:33;3;3;
64631;PMS5003;58358;50.936;0.246;2024-02-26T15:14:58;2;2;
64631;PMS5003;58358;50.936;0.246;2024-02-26T15:17:25;1;1;
64631;PMS5003;58358;50.936;0.246;2024-02-26T15:19:50;4;2;
64631;PMS5003;58358;50.936;0.246;2024-02-26T15:22:16;2;1;
64631;PMS5003;58358;50.936;0.246;2024-02-26T15:24:43;1;1;
64631;PMS5003;58358;50.936;0.246;2024-02-26T15:27:07;1;1;
64631;PMS5003;58358;50.936;0.246;2024-02-26T15:29:33;2;2;
64631;PMS5003;58358;50.936;0.246;2024-02-26T15:32:04;4;2;
64631;PMS5003;58358;50.936;0.246;2024-02-26T15:34:30;1;1;
64631;PMS5003;58358;50.936;0.246;2024-02-26T15:36:50;2;2;
64631;PMS5003;58358;50.936;0.246;2024-02-26T15:39:16;1;1;
64631;PMS5003;58358;50.936;0.246;2024-02-26T15:41:42;1;1;
64631;PMS5003;58358;50.936;0.246;2024-02-26T15:44:07;2;2;
64631;PMS5003;58358;50.936;0.246;2024-02-26T15:46:33;2;2;
64631;PMS5003;58358;50.936;0.246;2024-02-26T15:48:59;3;1;
64631;PMS5003;58358;50.936;0.246;2024-02-26T15:51:25;2;2;
64631;PMS5003;58358;50.936;0.246;2024-02-26T15:53:51;2;2;
64631;PMS5003;58358;50.936;0.246;2024-02-26T15:56:16;1;1;
64631;PMS5003;58358;50.936;0.246;2024-02-26T15:58:42;3;2;
64631;PMS5003;58358;50.936;0.246;2024-02-26T16:01:08;3;2;
64631;PMS5003;58358;50.936;0.246;2024-02-26T16:03:36;3;2;
64631;PMS5003;58358;50.936;0.246;2024-02-26T16:05:59;4;4;
64631;PMS5003;58358;50.936;0.246;2024-02-26T16:08:25;3;3;
64631;PMS5003;58358;50.936;0.246;2024-02-26T16:10:51;4;2;
64631;PMS5003;58358;50.936;0.246;2024-02-26T16:13:16;1;1;
64631;PMS5003;58358;50.936;0.246;2024-02-26T16:15:44;2;2;
64631;PMS5003;58358;50.936;0.246;2024-02-26T16:18:08;1;1;
64631;PMS5003;58358;50.936;0.246;2024-02-26T16:20:34;4;4;
64631;PMS5003;58358;50.936;0.246;2024-02-26T16:23:00;5;5;
64631;PMS5003;58358;50.936;0.246;2024-02-26T16:25:25;3;3;
64631;PMS5003;58358;50.936;0.246;2024-02-26T16:27:51;2;2;
64631;PMS5003;58358;50.936;0.246;2024-02-26T16:30:17;1;1;
64631;PMS5003;58358;50.936;0.246;2024-02-26T16:32:43;3;2;
64631;PMS5003;58358;50.936;0.246;2024-02-26T16:35:09;2;2;
64631;PMS5003;58358;50.936;0.246;2024-02-26T16:37:34;2;2;